Time;durP1;ratioP1;P1;durP2;ratioP2;P2;SDS_P1;SDS_P2;PMS_P1;PMS_P2;Temp;Humidity;BMP_temperature;BMP_pressure;BME280_temperature;BME280_humidity;BME280_pressure;Samples;Min_cycle;Max_cycle;Signal;HPM_P1;HPM_P2
2022/11/27 00:28:14;;;;;;;6.43;5.13;;;;;;;0.78;100.00;100743.72;1749826;77;31478;-71
2022/11/27 00:30:41;;;;;;;5.85;4.87;;;;;;;0.81;100.00;100747.39;1763784;81;20987;-70
2022/11/27 00:33:08;;;;;;;8.08;5.92;;;;;;;0.85;100.00;100742.09;1742668;81;21139;-70
2022/11/27 00:35:38;;;;;;;5.97;5.17;;;;;;;0.90;100.00;100740.28;1764136;81;20959;-70
2022/11/27 00:38:05;;;;;;;6.08;5.08;;;;;;;0.96;100.00;100743.59;1762895;81;21538;-70
2022/11/27 00:40:33;;;;;;;4.05;3.67;;;;;;;1.02;100.00;100746.92;1757491;81;21503;-70
2022/11/27 00:43:00;;;;;;;6.50;5.90;;;;;;;1.08;100.00;100738.83;1786777;79;20994;-68
2022/11/27 00:45:27;;;;;;;5.70;5.15;;;;;;;1.13;100.00;100741.81;1763948;81;21039;-70
2022/11/27 00:47:55;;;;;;;5.87;5.00;;;;;;;1.18;100.00;100740.84;1764317;81;21618;-70
2022/11/27 00:50:22;;;;;;;4.55;4.15;;;;;;;1.25;100.00;100737.84;1763810;81;20930;-69
2022/11/27 00:52:48;;;;;;;5.22;4.67;;;;;;;1.28;100.00;100740.19;1763815;81;21050;-69
2022/11/27 00:55:17;;;;;;;3.60;3.30;;;;;;;1.29;100.00;100734.73;1764256;81;21061;-69
2022/11/27 00:57:45;;;;;;;5.10;4.58;;;;;;;1.31;100.00;100735.87;1758562;81;21148;-68
2022/11/27 01:00:14;;;;;;;5.10;3.67;;;;;;;1.32;100.00;100732.23;1763214;79;21042;-69
2022/11/27 01:02:40;;;;;;;5.87;4.60;;;;;;;1.33;100.00;100735.22;1726916;81;20931;-68
2022/11/27 01:05:08;;;;;;;4.67;4.05;;;;;;;1.32;100.00;100745.48;1762638;81;21017;-70
2022/11/27 01:07:34;;;;;;;4.17;3.80;;;;;;;1.31;100.00;100732.73;1736318;81;21074;-71
2022/11/27 01:10:01;;;;;;;4.42;3.98;;;;;;;1.33;100.00;100726.44;1762613;81;21220;-67
2022/11/27 01:12:28;;;;;;;4.17;3.67;;;;;;;1.34;100.00;100723.64;1763775;81;20950;-68
2022/11/27 01:14:55;;;;;;;7.65;5.03;;;;;;;1.35;100.00;100716.48;1758981;80;21179;-69
2022/11/27 01:17:21;;;;;;;4.25;3.85;;;;;;;1.36;100.00;100729.58;1761992;81;21530;-70
2022/11/27 01:19:48;;;;;;;5.10;4.60;;;;;;;1.36;100.00;100721.63;1764365;79;21576;-68
2022/11/27 01:22:14;;;;;;;4.70;4.30;;;;;;;1.37;100.00;100720.64;1761744;81;21043;-70
2022/11/27 01:24:42;;;;;;;4.03;3.72;;;;;;;1.39;100.00;100721.81;1762754;81;21011;-70
2022/11/27 01:27:10;;;;;;;3.75;3.45;;;;;;;1.42;100.00;100728.09;1754509;80;21512;-70
2022/11/27 01:29:36;;;;;;;3.02;2.83;;;;;;;1.40;100.00;100724.77;1750067;81;21050;-71
2022/11/27 01:32:04;;;;;;;4.50;3.98;;;;;;;1.39;100.00;100739.84;1744108;81;21129;-71
2022/11/27 01:34:30;;;;;;;4.28;3.58;;;;;;;1.39;100.00;100728.44;1750030;81;22276;-68
2022/11/27 01:36:57;;;;;;;4.80;3.85;;;;;;;1.41;100.00;100727.77;1751282;81;21006;-69
2022/11/27 01:39:23;;;;;;;4.97;3.85;;;;;;;1.43;100.00;100724.47;1751272;81;21495;-70
2022/11/27 01:41:50;;;;;;;4.72;3.92;;;;;;;1.42;100.00;100724.95;1751105;81;21598;-70
2022/11/27 01:44:29;;;;;;;6.95;3.70;;;;;;;1.40;100.00;100738.02;1751622;81;21085;-70
2022/11/27 01:47:08;;;;;;;7.15;4.53;;;;;;;1.36;100.00;100729.58;1751838;81;21074;-68
2022/11/27 01:49:45;;;;;;;5.53;4.20;;;;;;;1.36;100.00;100727.42;1750169;81;21121;-67
2022/11/27 01:52:22;;;;;;;5.53;4.10;;;;;;;1.36;100.00;100732.73;1750344;81;21062;-67
2022/11/27 01:55:21;;;;;;;4.65;3.72;;;;;;;1.36;100.00;100729.58;1751717;81;21532;-68
2022/11/27 01:57:53;;;;;;;10.18;5.05;;;;;;;1.40;100.00;100721.63;1751590;81;21527;-68
2022/11/27 02:00:21;;;;;;;4.67;4.03;;;;;;;1.42;100.00;100725.45;1750643;81;21275;-68
2022/11/27 02:02:48;;;;;;;3.95;3.65;;;;;;;1.36;100.00;100744.66;1751049;81;20987;-68
2022/11/27 02:05:19;;;;;;;4.90;3.50;;;;;;;1.29;100.00;100732.58;1722818;81;21520;-69
2022/11/27 02:07:46;;;;;;;4.85;4.15;;;;;;;1.26;100.00;100727.09;1727424;81;21034;-69
2022/11/27 02:10:12;;;;;;;3.67;3.37;;;;;;;1.27;100.00;100730.58;1751437;81;21086;-69
2022/11/27 02:13:19;;;;;;;6.37;5.78;;;;;;;1.28;100.00;100726.44;1754286;81;21087;-67
2022/11/27 02:16:10;;;;;;;4.87;4.40;;;;;;;1.29;100.00;100728.59;1751214;81;21095;-71
2022/11/27 02:18:55;;;;;;;5.10;3.47;;;;;;;1.32;100.00;100730.91;1745631;81;21017;-68
2022/11/27 02:21:27;;;;;;;4.40;4.00;;;;;;;1.36;100.00;100720.30;1730124;81;20955;-66
2022/11/27 02:24:43;;;;;;;4.67;3.60;;;;;;;1.40;100.00;100722.95;1734728;81;21050;-64
2022/11/27 02:27:21;;;;;;;5.05;4.08;;;;;;;1.41;100.00;100721.14;1698454;82;21069;-71
2022/11/27 06:54:18;;;;;;;2.93;2.73;;;;;;;0.68;100.00;100784.05;1795200;78;22830;-72
2022/11/27 06:56:49;;;;;;;4.47;3.00;;;;;;;0.72;100.00;100800.47;1763437;81;21030;-72
2022/11/27 06:59:15;;;;;;;2.45;2.35;;;;;;;0.78;100.00;100791.86;1761261;81;21215;-71
2022/11/27 07:01:42;;;;;;;3.05;2.85;;;;;;;0.84;100.00;100790.74;1786625;80;20922;-72
2022/11/27 07:04:10;;;;;;;2.83;2.62;;;;;;;0.90;100.00;100791.93;1764649;81;20961;-73
2022/11/27 07:06:37;;;;;;;3.87;3.50;;;;;;;0.95;100.00;100794.92;1764793;81;20986;-72
2022/11/27 07:09:05;;;;;;;2.90;2.70;;;;;;;0.96;100.00;100795.23;1765169;81;20974;-72
2022/11/27 07:11:33;;;;;;;4.42;3.37;;;;;;;0.99;100.00;100796.75;1757872;81;21329;-71
2022/11/27 07:14:03;;;;;;;2.22;2.12;;;;;;;1.05;100.00;100794.80;1756346;81;21502;-72
2022/11/27 07:16:34;;;;;;;2.72;2.60;;;;;;;1.09;100.00;100798.28;1764165;81;20989;-71
2022/11/27 07:19:06;;;;;;;3.50;2.70;;;;;;;1.13;100.00;100794.31;1764910;81;21050;-72
2022/11/27 07:21:35;;;;;;;;;;;;;;;1.16;100.00;100793.14;1762619;81;21035;-73
2022/11/27 07:24:02;;;;;;;2.92;2.72;;;;;;;1.18;100.00;100797.31;1781618;79;21090;-73
2022/11/27 07:26:29;;;;;;;4.12;3.83;;;;;;;1.22;100.00;100794.66;1764194;80;21026;-74
2022/11/27 07:28:56;;;;;;;2.20;2.10;;;;;;;1.26;100.00;100796.48;1764835;81;20927;-74
2022/11/27 07:31:27;;;;;;;2.52;2.42;;;;;;;1.31;100.00;100795.50;1760597;81;20920;-70
2022/11/27 07:33:53;;;;;;;2.22;2.12;;;;;;;1.34;100.00;100795.69;1758617;81;21043;-73
2022/11/27 07:36:22;;;;;;;2.85;2.65;;;;;;;1.31;100.00;100795.50;1763478;81;21139;-72
2022/11/27 07:38:51;;;;;;;1.98;1.87;;;;;;;1.30;100.00;100797.31;1761019;81;21492;-72
2022/11/27 07:41:18;;;;;;;2.92;2.72;;;;;;;1.32;100.00;100798.48;1786649;79;20962;-72
2022/11/27 07:43:44;;;;;;;4.15;3.85;;;;;;;1.34;100.00;100795.20;1796394;79;20954;-71
2022/11/27 07:46:18;;;;;;;2.47;2.27;;;;;;;1.36;100.00;100795.84;1796124;79;21029;-72
2022/11/27 07:48:46;;;;;;;2.62;2.30;;;;;;;1.34;100.00;100793.87;1796560;79;21129;-72
2022/11/27 07:51:15;;;;;;;2.58;2.45;;;;;;;1.34;100.00;100790.39;1791902;79;21492;-72
2022/11/27 07:53:43;;;;;;;2.47;2.37;;;;;;;1.34;100.00;100796.52;1794085;78;20962;-72
2022/11/27 07:56:13;;;;;;;3.58;3.27;;;;;;;1.39;100.00;100800.00;1796276;79;20954;-72
2022/11/27 07:58:40;;;;;;;2.20;2.10;;;;;;;1.41;100.00;100803.30;1789628;79;20979;-72
2022/11/27 08:01:08;;;;;;;2.50;2.30;;;;;;;1.43;100.00;100804.81;1790138;80;21031;-72
2022/11/27 08:03:35;;;;;;;2.00;1.90;;;;;;;1.40;100.00;100801.14;1789908;79;20936;-72
2022/11/27 08:06:12;;;;;;;3.02;2.67;;;;;;;1.40;100.00;100797.16;1789231;80;20945;-71
2022/11/27 08:08:39;;;;;;;1.95;1.85;;;;;;;1.41;100.00;100801.48;1793522;79;20985;-72
2022/11/27 08:11:09;;;;;;;2.30;2.20;;;;;;;1.42;100.00;100803.15;1795524;79;21313;-73
2022/11/27 08:13:35;;;;;;;2.42;2.15;;;;;;;1.42;100.00;100803.64;1792566;79;21101;-73
2022/11/27 08:16:02;;;;;;;2.98;2.75;;;;;;;1.40;100.00;100801.14;1793559;79;21093;-73
2022/11/27 08:18:30;;;;;;;3.10;2.90;;;;;;;1.43;100.00;100799.52;1795273;79;20993;-73
2022/11/27 08:21:00;;;;;;;2.60;2.47;;;;;;;1.48;100.00;100798.52;1795887;79;20938;-71
2022/11/27 08:23:27;;;;;;;2.60;2.40;;;;;;;1.48;100.00;100806.48;1764599;80;21075;-71
2022/11/27 08:25:53;;;;;;;2.37;2.25;;;;;;;1.46;100.00;100799.66;1789459;80;21104;-70
2022/11/27 08:28:22;;;;;;;2.45;2.27;;;;;;;1.42;100.00;100802.31;1791721;79;21009;-70
2022/11/27 08:30:57;;;;;;;2.45;2.25;;;;;;;1.42;100.00;100801.82;1788942;79;20990;-72
2022/11/27 08:33:24;;;;;;;1.92;1.82;;;;;;;1.40;100.00;100810.42;1791057;79;20967;-70
2022/11/27 08:35:51;;;;;;;2.22;2.12;;;;;;;1.43;100.00;100805.30;1795613;79;21328;-70
2022/11/27 08:38:18;;;;;;;4.03;2.62;;;;;;;1.46;100.00;100804.97;1794167;79;21792;-71
2022/11/27 08:40:48;;;;;;;1.90;1.80;;;;;;;1.46;100.00;100807.13;1760773;80;20970;-72
2022/11/27 08:43:15;;;;;;;2.25;2.10;;;;;;;1.48;100.00;100796.37;1789015;79;20907;-74
2022/11/27 08:45:42;;;;;;;2.55;2.35;;;;;;;1.51;100.00;100801.33;1795622;79;21113;-72
2022/11/27 08:48:09;;;;;;;2.75;2.55;;;;;;;1.50;100.00;100795.69;1795765;79;21030;-72
2022/11/27 08:50:37;;;;;;;3.60;2.20;;;;;;;1.46;100.00;100800.50;1795167;79;21120;-71
2022/11/27 08:53:04;;;;;;;2.20;2.00;;;;;;;1.43;100.00;100800.84;1794771;79;20899;-71
2022/11/27 08:55:31;;;;;;;2.20;2.00;;;;;;;1.46;100.00;100795.69;1810738;78;21052;-74
2022/11/27 08:57:57;;;;;;;2.37;2.00;;;;;;;1.49;100.00;100795.35;1797172;79;21054;-70
2022/11/27 09:00:24;;;;;;;2.17;2.08;;;;;;;1.49;100.00;100798.84;1793499;79;21007;-71
2022/11/27 09:02:51;;;;;;;2.72;2.52;;;;;;;1.51;100.00;100799.52;1781162;78;21636;-71
2022/11/27 09:05:18;;;;;;;2.25;2.15;;;;;;;1.49;100.00;100796.67;1743244;81;20986;-71
2022/11/27 09:07:44;;;;;;;2.37;2.27;;;;;;;1.48;100.00;100791.90;1743740;81;21022;-70
2022/11/27 09:10:12;;;;;;;2.40;2.30;;;;;;;1.48;100.00;100801.17;1767044;81;21030;-72
2022/11/27 09:12:43;;;;;;;4.20;3.00;;;;;;;1.49;100.00;100798.84;1784917;79;21534;-70
2022/11/27 09:15:11;;;;;;;2.42;2.22;;;;;;;1.52;100.00;100793.72;1797342;79;21983;-69
2022/11/27 09:17:38;;;;;;;2.17;2.08;;;;;;;1.54;100.00;100799.17;1797801;79;20974;-70
2022/11/27 09:20:08;;;;;;;2.37;2.22;;;;;;;1.51;100.00;100798.67;1795621;79;20923;-70
2022/11/27 09:22:35;;;;;;;2.25;2.15;;;;;;;1.48;100.00;100796.37;1772702;79;21585;-71
2022/11/27 09:25:02;;;;;;;2.40;2.30;;;;;;;1.44;100.00;100791.06;1798679;79;20957;-71
2022/11/27 09:27:28;;;;;;;3.08;2.80;;;;;;;1.41;100.00;100798.83;1774345;79;21527;-69
2022/11/27 09:29:55;;;;;;;1.90;1.80;;;;;;;1.43;100.00;100795.53;1798346;79;20986;-69
2022/11/27 09:32:22;;;;;;;2.60;2.40;;;;;;;1.46;100.00;100792.55;1795750;79;21581;-69
2022/11/27 09:34:51;;;;;;;3.52;2.45;;;;;;;1.48;100.00;100789.73;1795580;79;21479;-69
2022/11/27 09:37:19;;;;;;;2.50;2.30;;;;;;;1.48;100.00;100795.05;1796086;79;21156;-69
2022/11/27 09:39:46;;;;;;;2.40;2.30;;;;;;;1.48;100.00;100793.22;1798922;79;21134;-69
2022/11/27 09:42:33;;;;;;;2.20;2.10;;;;;;;1.49;100.00;100794.02;1795993;79;20946;-71
2022/11/27 09:45:01;;;;;;;3.10;2.90;;;;;;;1.50;100.00;100789.89;1793237;79;21067;-71
2022/11/27 09:47:41;;;;;;;2.17;1.98;;;;;;;1.52;100.00;100795.05;1795440;79;20996;-69
2022/11/27 09:50:15;;;;;;;2.20;2.10;;;;;;;1.53;100.00;100795.38;1795717;79;21014;-75
2022/11/27 09:53:05;;;;;;;2.12;2.02;;;;;;;1.54;100.00;100791.22;1794925;78;21778;-82
2022/11/27 09:55:42;;;;;;;2.37;2.27;;;;;;;1.54;100.00;100794.36;1791805;77;21065;-75
2022/11/27 09:58:40;;;;;;;2.47;2.30;;;;;;;1.51;100.00;100790.23;1793663;79;21038;-74
2022/11/27 10:01:16;;;;;;;1.90;1.80;;;;;;;1.48;100.00;100797.70;1768723;79;21467;-72
2022/11/27 10:03:44;;;;;;;2.30;2.08;;;;;;;1.48;100.00;100788.41;1786917;79;21047;-74
2022/11/27 10:06:27;;;;;;;2.55;2.35;;;;;;;1.47;100.00;100784.94;1793861;79;21547;-71
2022/11/27 10:09:22;;;;;;;2.37;2.20;;;;;;;1.47;100.00;100794.21;1795924;79;21416;-72
2022/11/27 10:12:02;;;;;;;2.05;1.95;;;;;;;1.47;100.00;100786.26;1782122;79;21633;-73
2022/11/27 10:14:41;;;;;;;1.95;1.85;;;;;;;1.49;100.00;100788.72;1797229;79;21003;-72
2022/11/27 10:17:20;;;;;;;2.70;2.50;;;;;;;1.48;100.00;100796.37;1770469;79;21049;-74
2022/11/27 10:20:10;;;;;;;2.12;2.02;;;;;;;1.45;100.00;100784.25;1793940;79;21345;-74
2022/11/27 10:23:12;;;;;;;1.70;1.60;;;;;;;1.47;100.00;100786.75;1795809;79;20982;-77
2022/11/27 10:25:49;;;;;;;2.00;1.90;;;;;;;1.46;100.00;100783.27;1749225;79;21040;-78
2022/11/27 10:28:36;;;;;;;2.15;1.98;;;;;;;1.48;100.00;100787.09;1794138;78;20927;-74
2022/11/27 10:31:14;;;;;;;2.45;2.35;;;;;;;1.51;100.00;100789.41;1765692;79;21626;-75
2022/11/27 10:33:51;;;;;;;2.20;2.10;;;;;;;1.52;100.00;100785.27;1788693;79;22765;-76
2022/11/27 10:36:29;;;;;;;2.85;2.65;;;;;;;1.53;100.00;100788.27;1794608;78;21076;-78
2022/11/27 14:21:42;;;;;;;2.93;2.73;;;;;;;0.51;100.00;100767.77;1874895;75;22660;-80
2022/11/27 14:24:35;;;;;;;4.05;2.92;;;;;;;0.57;100.00;100774.25;1827291;78;20966;-84
2022/11/27 14:27:23;;;;;;;3.25;2.85;;;;;;;0.66;100.00;100783.89;1823246;78;21240;-78
2022/11/27 14:29:51;;;;;;;3.87;3.17;;;;;;;0.74;100.00;100787.39;1825944;77;22143;-78
2022/11/27 14:32:19;;;;;;;2.72;2.52;;;;;;;0.86;100.00;100789.27;1834242;77;21535;-79
2022/11/27 14:34:49;;;;;;;3.85;3.55;;;;;;;0.92;100.00;100789.93;1796983;78;21014;-79
2022/11/27 14:37:24;;;;;;;3.95;3.00;;;;;;;0.99;100.00;100790.96;1819518;78;21530;-86
2022/11/27 14:39:53;;;;;;;3.17;2.85;;;;;;;1.07;100.00;100786.17;1788279;78;21101;-87
2022/11/27 14:42:27;;;;;;;3.37;2.47;;;;;;;1.15;100.00;100788.86;1819439;77;20884;-86
2022/11/27 14:45:05;;;;;;;4.60;3.83;;;;;;;1.23;100.00;100787.55;1767183;80;21054;-84
2022/11/27 14:47:36;;;;;;;2.60;2.40;;;;;;;1.25;100.00;100777.09;1790045;79;20994;-87
2022/11/27 14:50:06;;;;;;;4.05;2.80;;;;;;;1.26;100.00;100778.77;1790169;80;20986;-86
2022/11/27 14:52:33;;;;;;;3.47;3.17;;;;;;;1.24;100.00;100783.91;1788448;80;21314;-88
2022/11/27 14:55:00;;;;;;;3.58;3.25;;;;;;;1.23;100.00;100787.05;1763168;79;21116;-81
2022/11/27 14:57:28;;;;;;;3.40;3.10;;;;;;;1.26;100.00;100788.53;1778804;80;21678;-84
2022/11/27 15:00:18;;;;;;;2.83;2.62;;;;;;;1.29;100.00;100789.55;1777968;80;21107;-84
2022/11/27 15:02:47;;;;;;;3.72;3.08;;;;;;;1.34;100.00;100788.56;1782321;79;21011;-85
2022/11/27 15:05:19;;;;;;;5.50;3.70;;;;;;;1.34;100.00;100782.44;1792059;79;21836;-82
2022/11/27 15:07:46;;;;;;;5.65;3.40;;;;;;;1.37;100.00;100783.42;1775886;80;21149;-82
2022/11/27 15:10:38;;;;;;;5.05;4.50;;;;;;;1.40;100.00;100784.41;1767013;80;21750;-79
2022/11/27 15:13:07;;;;;;;4.60;3.70;;;;;;;1.40;100.00;100783.08;1761623;81;21190;-80
2022/11/27 15:15:40;;;;;;;6.08;4.60;;;;;;;1.38;100.00;100783.27;1752925;80;21071;-81
2022/11/27 15:18:08;;;;;;;4.45;4.03;;;;;;;1.40;100.00;100776.45;1745144;81;21386;-80
2022/11/27 15:20:41;;;;;;;8.13;7.15;;;;;;;1.41;100.00;100778.95;1729129;81;21047;-78
2022/11/27 15:23:27;;;;;;;7.35;6.00;;;;;;;1.44;100.00;100781.27;1764696;81;24937;-81
2022/11/27 15:26:07;;;;;;;5.17;4.28;;;;;;;1.51;100.00;100776.14;1750453;81;21085;-78
2022/11/27 15:28:42;;;;;;;6.75;5.00;;;;;;;1.55;100.00;100777.47;1745497;81;21102;-80
2022/11/27 15:31:36;;;;;;;3.83;3.52;;;;;;;1.52;100.00;100779.97;1733239;82;21538;-82
2022/11/27 15:34:17;;;;;;;10.78;6.37;;;;;;;1.49;100.00;100780.77;1734349;81;21010;-81
2022/11/27 15:36:49;;;;;;;4.05;3.45;;;;;;;1.49;100.00;100780.28;1746606;81;21022;-83
2022/11/27 15:39:27;;;;;;;2.97;2.67;;;;;;;1.53;100.00;100775.00;1763478;81;21074;-79
2022/11/27 15:41:57;;;;;;;3.50;3.20;;;;;;;1.55;100.00;100780.95;1761362;81;21266;-80
2022/11/27 15:44:25;;;;;;;3.87;3.58;;;;;;;1.52;100.00;100773.84;1761954;81;21550;-80
2022/11/27 15:46:52;;;;;;;2.80;2.60;;;;;;;1.49;100.00;100776.80;1682997;84;20950;-81
2022/11/27 15:49:19;;;;;;;6.87;4.60;;;;;;;1.47;100.00;100775.66;1740502;81;20924;-79
2022/11/27 15:51:45;;;;;;;4.33;3.45;;;;;;;1.47;100.00;100770.84;1763576;81;21046;-79
2022/11/27 15:54:12;;;;;;;4.17;3.70;;;;;;;1.46;100.00;100777.97;1748256;81;21002;-84
2022/11/27 15:56:38;;;;;;;4.78;4.37;;;;;;;1.46;100.00;100776.64;1732774;81;21034;-84
2022/11/27 15:59:05;;;;;;;4.80;4.33;;;;;;;1.46;100.00;100780.62;1748570;81;21098;-81
2022/11/27 16:01:32;;;;;;;4.65;3.70;;;;;;;1.48;100.00;100781.79;1734334;80;21022;-83
2022/11/27 16:03:59;;;;;;;4.75;3.50;;;;;;;1.45;100.00;100788.23;1751411;81;20967;-84
2022/11/27 16:06:25;;;;;;;3.58;3.22;;;;;;;1.40;100.00;100779.94;1762507;81;21041;-79
2022/11/27 16:09:01;;;;;;;3.85;3.50;;;;;;;1.36;100.00;100774.64;1759707;80;21081;-82
2022/11/27 16:11:30;;;;;;;3.92;3.62;;;;;;;1.34;100.00;100781.11;1740917;81;21134;-83
2022/11/27 16:13:58;;;;;;;2.67;2.47;;;;;;;1.35;100.00;100778.77;1734611;81;21107;-79
2022/11/27 16:16:25;;;;;;;3.02;2.72;;;;;;;1.35;100.00;100789.37;1704999;82;21423;-84
2022/11/27 16:18:58;;;;;;;3.17;2.80;;;;;;;1.36;100.00;100784.41;1747575;81;21026;-80
2022/11/27 16:21:25;;;;;;;4.83;4.42;;;;;;;1.36;100.00;100783.08;1741462;81;21116;-84
2022/11/27 16:23:58;;;;;;;5.28;4.78;;;;;;;1.38;100.00;100783.77;1737559;81;21336;-83
2022/11/27 16:26:25;;;;;;;5.78;5.17;;;;;;;1.39;100.00;100779.60;1739875;81;21045;-84
2022/11/27 16:28:53;;;;;;;3.35;3.00;;;;;;;1.37;100.00;100782.92;1745554;81;20951;-83
2022/11/27 16:31:21;;;;;;;3.60;3.37;;;;;;;1.37;100.00;100787.40;1737074;81;20923;-76
2022/11/27 16:33:47;;;;;;;5.15;4.55;;;;;;;1.36;100.00;100785.24;1747483;81;21248;-82
2022/11/27 16:36:19;;;;;;;3.62;3.33;;;;;;;1.39;100.00;100780.92;1705701;81;21090;-82
2022/11/27 16:38:48;;;;;;;5.22;4.72;;;;;;;1.43;100.00;100790.23;1735445;81;21053;-76
2022/11/27 16:41:17;;;;;;;4.87;4.47;;;;;;;1.47;100.00;100788.91;1741086;81;21058;-76
2022/11/27 16:43:50;;;;;;;5.97;5.37;;;;;;;1.46;100.00;100792.55;1719086;81;21121;-79
2022/11/27 16:46:21;;;;;;;6.35;4.65;;;;;;;1.47;100.00;100793.37;1737102;81;21256;-80
2022/11/27 16:48:48;;;;;;;4.30;3.92;;;;;;;1.47;100.00;100795.53;1741419;81;20963;-79
2022/11/27 16:51:24;;;;;;;4.65;4.25;;;;;;;1.47;100.00;100798.68;1743117;81;20947;-79
2022/11/27 16:53:53;;;;;;;7.87;4.78;;;;;;;1.46;100.00;100799.66;1744109;81;21026;-81
2022/11/27 16:56:26;;;;;;;4.90;4.53;;;;;;;1.47;100.00;100802.66;1730451;81;21055;-88
2022/11/27 16:58:55;;;;;;;5.20;4.80;;;;;;;1.49;100.00;100807.28;1718219;81;21144;-88
2022/11/27 17:01:29;;;;;;;5.50;4.60;;;;;;;1.47;100.00;100798.68;1749715;81;21609;-85
2022/11/27 17:03:59;;;;;;;6.90;5.40;;;;;;;1.43;100.00;100798.19;1743120;79;20978;-83
2022/11/27 17:06:30;;;;;;;4.83;4.42;;;;;;;1.40;100.00;100800.31;1751179;81;21033;-80
2022/11/27 17:09:00;;;;;;;5.55;4.05;;;;;;;1.42;100.00;100804.48;1747975;79;21046;-78
2022/11/27 17:11:35;;;;;;;7.17;4.67;;;;;;;1.44;100.00;100806.97;1754136;81;21109;-79
2022/11/27 17:14:06;;;;;;;4.30;3.90;;;;;;;1.47;100.00;100799.52;1712138;81;20974;-80
2022/11/27 17:16:35;;;;;;;4.47;4.08;;;;;;;1.52;100.00;100801.67;1743390;81;20935;-78
2022/11/27 17:19:03;;;;;;;5.17;4.70;;;;;;;1.52;100.00;100802.50;1748888;79;21370;-83
2022/11/27 17:21:33;;;;;;;4.50;4.10;;;;;;;1.52;100.00;100798.52;1751832;79;21115;-84
2022/11/27 17:24:05;;;;;;;4.15;3.80;;;;;;;1.49;100.00;100801.48;1751156;81;21124;-80
2022/11/27 17:26:41;;;;;;;5.50;4.37;;;;;;;1.47;100.00;100806.14;1733172;81;20998;-76
2022/11/27 17:29:03;;;;;;;3.50;3.20;;;;;;;1.45;100.00;100798.84;1743217;79;20947;-75
2022/11/27 17:31:33;;;;;;;3.87;3.58;;;;;;;1.42;100.00;100804.48;1734001;82;20935;-77
2022/11/27 17:34:00;;;;;;;5.47;4.00;;;;;;;1.43;100.00;100803.98;1759966;81;21523;-74
2022/11/27 17:36:28;;;;;;;3.95;3.65;;;;;;;1.43;100.00;100811.94;1759074;81;22329;-73
2022/11/27 17:38:56;;;;;;;5.10;4.65;;;;;;;1.45;100.00;100805.45;1742188;79;21043;-75
2022/11/27 17:41:23;;;;;;;9.90;4.37;;;;;;;1.49;100.00;100808.11;1739053;81;21656;-77
2022/11/27 17:43:51;;;;;;;4.08;3.77;;;;;;;1.52;100.00;100808.30;1740471;81;20951;-74
2022/11/27 17:46:25;;;;;;;4.22;3.85;;;;;;;1.54;100.00;100808.95;1679993;84;21109;-73
2022/11/27 17:48:53;;;;;;;3.42;3.12;;;;;;;1.54;100.00;100809.78;1709006;84;21218;-77
2022/11/27 17:51:20;;;;;;;3.10;2.87;;;;;;;1.56;100.00;100804.32;1738639;81;21006;-79
2022/11/27 17:53:47;;;;;;;5.85;5.33;;;;;;;1.54;100.00;100800.99;1709159;84;21594;-75
2022/11/27 17:56:17;;;;;;;4.97;3.80;;;;;;;1.54;100.00;100810.27;1708936;84;21090;-79
2022/11/27 17:58:44;;;;;;;4.92;4.42;;;;;;;1.54;100.00;100808.95;1708064;82;21090;-75
2022/11/27 18:01:23;;;;;;;7.35;4.00;;;;;;;1.51;100.00;100804.81;1726670;82;21075;-72
2022/11/27 18:03:50;;;;;;;4.90;4.25;;;;;;;1.51;100.00;100808.79;1735390;81;20990;-76
2022/11/27 18:06:18;;;;;;;7.90;5.92;;;;;;;1.48;100.00;100806.48;1733771;82;21340;-74
2022/11/27 18:08:46;;;;;;;6.83;4.80;;;;;;;1.44;100.00;100801.14;1734031;82;21046;-74
